Time;durP1;ratioP1;P1;durP2;ratioP2;P2;SDS_P1;SDS_P2;PMS_P1;PMS_P2;Temp;Humidity;BMP_temperature;BMP_pressure;BME280_temperature;BME280_humidity;BME280_pressure;Samples;Min_cycle;Max_cycle;Signal;HPM_P1;HPM_P2
2023/10/31 00:00:23;;;;;;;16.55;2.75;;;22.40;99.90;;;;;;4994257;28;20022;-70
2023/10/31 00:02:50;;;;;;;17.63;2.75;;;22.40;99.90;;;;;;4994633;28;20029;-70
2023/10/31 00:05:16;;;;;;;13.05;2.58;;;22.40;99.90;;;;;;4994097;28;20042;-70
2023/10/31 00:07:42;;;;;;;18.63;2.67;;;22.40;99.90;;;;;;4994036;28;20035;-70
2023/10/31 00:10:09;;;;;;;23.00;2.70;;;22.30;99.90;;;;;;4976479;28;20113;-71
2023/10/31 00:12:35;;;;;;;16.75;2.45;;;22.30;99.90;;;;;;4994022;28;20113;-70
2023/10/31 00:15:01;;;;;;;17.90;2.60;;;22.40;99.90;;;;;;4994223;28;20106;-70
2023/10/31 00:17:27;;;;;;;16.63;2.35;;;22.40;99.90;;;;;;4994436;28;20072;-72
2023/10/31 00:19:53;;;;;;;19.17;3.10;;;22.30;99.90;;;;;;4994371;28;20026;-71
2023/10/31 00:22:19;;;;;;;22.17;2.78;;;22.40;99.90;;;;;;4994250;28;20045;-71
2023/10/31 00:24:46;;;;;;;16.63;2.95;;;22.30;99.90;;;;;;4991396;28;20088;-70
2023/10/31 00:27:12;;;;;;;16.85;2.78;;;22.20;99.90;;;;;;4993708;28;20022;-70
2023/10/31 00:29:38;;;;;;;27.50;2.78;;;22.20;99.90;;;;;;4993958;28;20493;-69
2023/10/31 00:32:05;;;;;;;17.92;2.67;;;22.20;99.90;;;;;;4993668;28;20030;-72
2023/10/31 00:34:31;;;;;;;23.23;2.78;;;22.20;99.90;;;;;;4993920;28;20026;-70
2023/10/31 00:36:57;;;;;;;19.85;2.83;;;22.20;99.90;;;;;;4992094;28;20136;-71
2023/10/31 00:39:23;;;;;;;20.70;2.92;;;22.20;99.90;;;;;;4993796;28;20054;-71
2023/10/31 00:41:49;;;;;;;18.20;3.38;;;22.20;99.90;;;;;;4993151;28;20030;-70
2023/10/31 00:44:15;;;;;;;;;;;22.20;99.90;;;;;;4993794;28;20034;-70
2023/10/31 00:46:42;;;;;;;25.17;3.10;;;22.10;99.90;;;;;;4994126;28;19916;-71
2023/10/31 00:49:08;;;;;;;20.95;3.00;;;22.20;99.90;;;;;;4993773;28;20446;-71
2023/10/31 00:51:34;;;;;;;24.58;3.05;;;22.20;99.90;;;;;;4993723;28;20026;-71
2023/10/31 00:54:00;;;;;;;17.38;2.75;;;22.20;99.90;;;;;;4993387;28;20019;-71
2023/10/31 00:56:26;;;;;;;22.15;3.35;;;22.20;99.90;;;;;;4993218;28;20065;-70
2023/10/31 00:58:52;;;;;;;19.25;2.78;;;22.30;99.90;;;;;;4992999;28;20478;-70
2023/10/31 01:01:18;;;;;;;21.45;3.38;;;22.30;99.90;;;;;;4993586;28;20112;-71
2023/10/31 01:03:45;;;;;;;17.50;2.60;;;22.20;99.90;;;;;;4993059;28;20044;-71
2023/10/31 01:06:12;;;;;;;19.17;3.25;;;22.30;99.90;;;;;;4993080;28;20066;-70
2023/10/31 01:08:38;;;;;;;30.02;3.63;;;22.30;99.90;;;;;;4993131;28;20022;-71
2023/10/31 01:11:04;;;;;;;21.65;3.28;;;22.30;99.90;;;;;;4991435;28;20081;-72
2023/10/31 01:13:30;;;;;;;27.13;3.58;;;22.30;99.90;;;;;;4992838;28;20109;-70
2023/10/31 01:15:56;;;;;;;20.98;2.83;;;22.40;99.90;;;;;;4992881;28;20404;-69
2023/10/31 01:18:22;;;;;;;23.38;2.72;;;22.30;99.90;;;;;;4993198;28;20149;-71
2023/10/31 01:20:49;;;;;;;27.60;3.08;;;22.40;99.90;;;;;;4992872;28;20117;-70
2023/10/31 01:23:15;;;;;;;27.38;3.70;;;22.40;99.90;;;;;;4993027;28;20022;-71
2023/10/31 01:25:41;;;;;;;27.27;3.28;;;22.40;99.90;;;;;;4993199;28;20037;-71
2023/10/31 01:28:07;;;;;;;29.27;3.08;;;22.40;99.90;;;;;;4992427;28;20038;-70
2023/10/31 01:30:33;;;;;;;23.65;3.08;;;22.40;99.90;;;;;;4992864;28;20375;-70
2023/10/31 01:32:59;;;;;;;19.92;3.08;;;22.30;99.90;;;;;;4991319;28;20022;-70
2023/10/31 01:35:25;;;;;;;23.58;3.22;;;22.30;99.90;;;;;;4992295;28;20038;-70
2023/10/31 01:37:51;;;;;;;17.75;3.08;;;22.30;99.90;;;;;;4992663;28;20112;-70
2023/10/31 01:40:17;;;;;;;23.42;3.20;;;22.30;99.90;;;;;;4992432;28;20097;-70
2023/10/31 01:42:44;;;;;;;27.02;3.35;;;22.30;99.90;;;;;;4992267;28;20505;-70
2023/10/31 01:45:10;;;;;;;23.73;3.03;;;22.30;99.90;;;;;;4974933;28;20037;-71
2023/10/31 01:47:36;;;;;;;29.95;3.47;;;22.30;99.90;;;;;;4992482;28;20019;-70
2023/10/31 01:50:03;;;;;;;25.20;3.10;;;22.30;99.90;;;;;;4992683;28;20359;-72
2023/10/31 01:52:32;;;;;;;23.50;3.65;;;22.30;99.90;;;;;;4992791;28;20460;-71
2023/10/31 01:54:59;;;;;;;23.60;3.65;;;22.30;99.90;;;;;;4992266;28;20034;-71
2023/10/31 01:57:25;;;;;;;;;;;22.30;99.90;;;;;;4992582;28;20133;-70
2023/10/31 01:59:51;;;;;;;28.35;3.33;;;22.40;99.90;;;;;;4992354;28;19917;-71
2023/10/31 02:02:17;;;;;;;29.65;3.15;;;22.30;99.90;;;;;;4992291;28;20378;-70
2023/10/31 02:04:44;;;;;;;27.95;3.55;;;22.40;99.90;;;;;;4990693;28;20046;-69
2023/10/31 02:07:11;;;;;;;25.42;3.90;;;22.40;99.90;;;;;;4992642;28;20026;-70
2023/10/31 02:09:37;;;;;;;28.05;3.88;;;22.40;99.90;;;;;;4992111;28;20375;-70
2023/10/31 02:12:03;;;;;;;30.90;4.13;;;22.40;99.90;;;;;;4991936;28;20030;-70
2023/10/31 02:14:30;;;;;;;27.52;3.95;;;22.40;99.90;;;;;;4992442;28;20463;-71
2023/10/31 02:16:56;;;;;;;27.63;3.85;;;22.40;99.90;;;;;;4992595;28;20040;-71
2023/10/31 02:19:22;;;;;;;25.35;3.40;;;22.40;99.90;;;;;;4992347;28;20038;-70
2023/10/31 02:21:48;;;;;;;23.30;3.92;;;22.40;99.90;;;;;;4992086;28;20101;-70
2023/10/31 02:24:14;;;;;;;26.17;3.33;;;22.30;99.90;;;;;;4992018;28;20105;-70
2023/10/31 02:26:40;;;;;;;23.05;3.92;;;22.30;99.90;;;;;;4991925;28;20431;-70
2023/10/31 02:29:06;;;;;;;30.27;3.97;;;22.30;99.90;;;;;;4991796;28;20057;-70
2023/10/31 02:31:32;;;;;;;28.33;3.75;;;22.30;99.90;;;;;;4992357;28;20027;-70
2023/10/31 02:33:58;;;;;;;24.83;3.10;;;22.30;99.90;;;;;;4992462;28;20022;-71
2023/10/31 02:36:24;;;;;;;25.30;3.50;;;22.20;99.90;;;;;;4991794;28;20042;-71
2023/10/31 02:38:50;;;;;;;30.85;3.67;;;22.20;99.90;;;;;;4991797;28;20027;-71
2023/10/31 02:41:16;;;;;;;25.70;4.13;;;22.20;99.90;;;;;;4992108;28;20165;-70
2023/10/31 02:43:42;;;;;;;23.90;3.90;;;22.20;99.90;;;;;;4991626;28;20022;-70
2023/10/31 02:46:12;;;;;;;30.75;4.72;;;22.20;99.90;;;;;;4992120;28;20022;-71
2023/10/31 02:48:39;;;;;;;32.00;3.88;;;22.20;99.90;;;;;;4993920;28;20030;-70
2023/10/31 02:51:07;;;;;;;24.98;3.33;;;22.20;99.90;;;;;;4996017;28;20026;-71
2023/10/31 02:53:33;;;;;;;25.17;3.38;;;22.10;99.90;;;;;;4995623;28;20037;-72
2023/10/31 02:56:01;;;;;;;29.50;4.32;;;22.10;99.90;;;;;;4995911;28;20060;-71
2023/10/31 02:58:27;;;;;;;31.25;4.03;;;22.10;99.90;;;;;;4995288;28;20151;-71
2023/10/31 03:00:53;;;;;;;35.72;4.03;;;22.10;99.90;;;;;;4995468;28;20386;-73
2023/10/31 03:03:19;;;;;;;35.85;4.15;;;22.10;99.90;;;;;;4995456;28;20034;-71
2023/10/31 03:05:45;;;;;;;23.80;3.90;;;22.10;99.90;;;;;;4995310;28;20038;-70
2023/10/31 03:08:12;;;;;;;28.08;3.55;;;22.10;99.90;;;;;;4995274;28;20117;-71
2023/10/31 03:10:42;;;;;;;26.42;3.95;;;22.10;99.90;;;;;;4995466;28;20045;-72
2023/10/31 03:13:08;;;;;;;18.25;3.70;;;22.10;99.90;;;;;;4995083;28;20027;-71
2023/10/31 03:15:34;;;;;;;25.33;3.42;;;22.10;99.90;;;;;;4995416;28;20038;-71
2023/10/31 03:18:00;;;;;;;18.92;3.75;;;22.10;99.90;;;;;;4995092;28;20332;-71
2023/10/31 03:20:26;;;;;;;22.52;3.33;;;22.10;99.90;;;;;;4995476;28;20033;-72
2023/10/31 03:22:52;;;;;;;27.05;3.95;;;22.10;99.90;;;;;;4995482;28;20030;-70
2023/10/31 03:25:18;;;;;;;31.25;3.75;;;22.10;99.90;;;;;;4995439;28;20023;-72
2023/10/31 03:27:44;;;;;;;23.38;3.47;;;22.10;99.90;;;;;;4977144;28;20033;-71
2023/10/31 03:30:11;;;;;;;25.15;3.35;;;22.10;99.90;;;;;;4994554;28;20383;-71
2023/10/31 03:32:37;;;;;;;;;;;22.10;99.90;;;;;;4995382;28;20037;-71
2023/10/31 03:35:03;;;;;;;24.10;3.55;;;22.10;99.90;;;;;;4994621;28;19910;-71
2023/10/31 03:37:29;;;;;;;24.80;3.97;;;22.20;99.90;;;;;;4994831;28;20349;-72
2023/10/31 03:39:55;;;;;;;28.95;4.43;;;22.20;99.90;;;;;;4994420;28;20038;-71
2023/10/31 03:42:21;;;;;;;25.13;4.38;;;22.20;99.90;;;;;;4995940;28;20132;-72
2023/10/31 03:44:47;;;;;;;24.70;4.53;;;22.30;99.90;;;;;;4992856;28;20498;-70
2023/10/31 03:47:13;;;;;;;36.38;4.75;;;22.30;99.90;;;;;;5004433;28;20386;-70
2023/10/31 03:49:42;;;;;;;21.45;3.92;;;22.30;99.90;;;;;;5003747;28;20026;-71
2023/10/31 03:52:08;;;;;;;29.15;3.67;;;22.30;99.90;;;;;;5002393;28;20041;-71
2023/10/31 03:54:34;;;;;;;28.88;4.40;;;22.30;99.90;;;;;;5004173;28;20454;-71
2023/10/31 03:57:00;;;;;;;33.17;4.32;;;22.40;99.90;;;;;;5003758;28;20435;-72
2023/10/31 03:59:26;;;;;;;24.33;3.55;;;22.40;99.90;;;;;;5000319;28;20457;-71
2023/10/31 04:01:52;;;;;;;27.02;3.30;;;22.40;99.90;;;;;;4988896;28;20117;-71
2023/10/31 04:04:18;;;;;;;25.95;3.63;;;22.30;99.90;;;;;;4987261;28;20129;-71
2023/10/31 04:06:44;;;;;;;30.73;4.55;;;22.30;99.90;;;;;;4998741;28;20030;-70
2023/10/31 04:09:10;;;;;;;31.40;3.78;;;22.40;99.90;;;;;;4997153;28;20125;-71
2023/10/31 04:11:36;;;;;;;31.88;5.03;;;22.40;99.90;;;;;;5001296;28;20391;-73
2023/10/31 04:14:04;;;;;;;33.53;4.65;;;22.30;99.90;;;;;;5004131;28;20423;-72
2023/10/31 04:16:30;;;;;;;37.58;4.30;;;22.40;99.90;;;;;;5001430;28;20033;-71
2023/10/31 04:18:56;;;;;;;25.83;3.83;;;22.50;99.90;;;;;;4994815;28;20032;-71
2023/10/31 04:21:22;;;;;;;29.27;4.15;;;22.50;99.90;;;;;;4994279;28;20093;-70
2023/10/31 04:23:48;;;;;;;31.60;4.25;;;22.50;99.90;;;;;;4994861;28;20019;-72
2023/10/31 04:26:15;;;;;;;29.35;3.95;;;22.50;99.90;;;;;;4995604;28;20029;-72
2023/10/31 04:28:41;;;;;;;26.73;4.13;;;22.50;99.90;;;;;;4995084;28;20027;-70
2023/10/31 04:31:07;;;;;;;25.33;3.58;;;22.50;99.90;;;;;;4993709;28;20022;-70
2023/10/31 04:33:33;;;;;;;31.67;3.78;;;22.60;99.90;;;;;;4995002;28;20415;-72
2023/10/31 04:36:00;;;;;;;30.13;4.57;;;22.60;99.90;;;;;;4995308;28;20038;-71
2023/10/31 04:38:26;;;;;;;32.55;4.68;;;22.60;99.90;;;;;;4995380;28;20022;-72
2023/10/31 04:40:53;;;;;;;28.83;4.47;;;22.60;99.90;;;;;;4994674;28;20034;-70
2023/10/31 04:43:19;;;;;;;29.75;4.32;;;22.60;99.90;;;;;;4994285;28;20057;-71
2023/10/31 04:45:45;;;;;;;35.35;4.60;;;22.60;99.90;;;;;;4994544;28;20205;-71
2023/10/31 04:48:12;;;;;;;37.45;4.85;;;22.70;99.90;;;;;;4994112;28;20035;-71
2023/10/31 04:50:38;;;;;;;28.10;3.85;;;22.70;99.90;;;;;;4992659;28;20401;-71
2023/10/31 04:53:04;;;;;;;;;;;22.70;99.90;;;;;;4994480;28;20032;-71
2023/10/31 04:55:30;;;;;;;30.00;3.53;;;22.70;99.90;;;;;;5000345;28;19918;-71
2023/10/31 04:57:56;;;;;;;32.65;4.90;;;22.70;99.90;;;;;;5013547;28;20022;-72
2023/10/31 05:00:23;;;;;;;26.55;4.13;;;22.70;99.90;;;;;;5013385;28;20030;-72
2023/10/31 05:02:49;;;;;;;;;;;22.60;99.90;;;;;;5013939;28;20371;-72
2023/10/31 05:05:15;;;;;;;22.20;3.10;;;22.40;99.90;;;;;;5013152;28;19917;-70
2023/10/31 05:07:42;;;;;;;;;;;22.30;99.90;;;;;;5013824;28;20026;-69
2023/10/31 05:10:09;;;;;;;28.98;5.00;;;22.30;99.90;;;;;;5012699;28;19967;-71
2023/10/31 05:12:35;;;;;;;23.45;4.03;;;22.30;99.90;;;;;;4994595;28;20022;-71
2023/10/31 05:15:02;;;;;;;25.90;4.32;;;22.30;99.90;;;;;;4993491;28;20034;-71
2023/10/31 05:17:28;;;;;;;27.10;3.95;;;22.30;99.90;;;;;;4994106;28;20064;-72
2023/10/31 05:19:54;;;;;;;34.95;3.90;;;22.40;99.90;;;;;;4993963;28;20070;-72
2023/10/31 05:22:20;;;;;;;34.90;5.47;;;22.30;99.90;;;;;;4976224;28;20031;-71
2023/10/31 05:24:46;;;;;;;27.10;4.22;;;22.30;99.90;;;;;;4991333;28;20083;-69
2023/10/31 05:27:12;;;;;;;24.05;3.13;;;22.30;99.90;;;;;;4994949;28;20113;-71
2023/10/31 05:29:41;;;;;;;48.58;4.45;;;22.30;99.90;;;;;;4994037;28;20454;-69
2023/10/31 05:32:07;;;;;;;30.85;4.65;;;22.30;99.90;;;;;;4993886;28;20030;-70
2023/10/31 05:34:33;;;;;;;22.70;4.15;;;22.30;99.90;;;;;;4994454;28;20076;-69
2023/10/31 05:36:59;;;;;;;29.48;4.10;;;22.30;99.90;;;;;;4993905;28;20430;-70
2023/10/31 05:39:26;;;;;;;29.33;4.47;;;22.30;99.90;;;;;;4993693;28;20046;-70
2023/10/31 05:41:52;;;;;;;;;;;22.20;99.90;;;;;;4993937;28;20027;-67
2023/10/31 05:44:18;;;;;;;29.13;4.40;;;22.20;99.90;;;;;;4991915;28;19905;-70
2023/10/31 05:46:44;;;;;;;30.83;4.63;;;22.20;99.90;;;;;;4991114;28;20081;-69
2023/10/31 05:49:10;;;;;;;20.85;3.83;;;22.20;99.90;;;;;;4982564;28;20388;-68
2023/10/31 05:51:36;;;;;;;31.05;4.40;;;22.10;99.90;;;;;;4974082;28;20466;-68
2023/10/31 05:54:03;;;;;;;27.23;4.43;;;22.10;99.90;;;;;;4974539;28;20092;-70
2023/10/31 05:56:29;;;;;;;27.60;3.97;;;22.20;99.90;;;;;;4974648;28;20035;-70
2023/10/31 05:58:55;;;;;;;28.67;4.55;;;22.20;99.90;;;;;;4973948;28;20169;-71
2023/10/31 06:01:21;;;;;;;31.40;4.15;;;22.20;99.90;;;;;;4973996;28;20098;-70
2023/10/31 06:03:47;;;;;;;32.00;4.13;;;22.30;99.90;;;;;;4973870;28;20054;-70
2023/10/31 06:06:13;;;;;;;25.58;3.90;;;22.30;99.90;;;;;;4974105;28;20039;-69
2023/10/31 06:08:43;;;;;;;31.33;4.32;;;22.30;99.90;;;;;;4973675;28;20019;-70
2023/10/31 06:11:12;;;;;;;25.80;4.05;;;22.40;99.90;;;;;;4980291;28;20029;-70
2023/10/31 06:13:38;;;;;;;29.70;4.10;;;22.40;99.90;;;;;;4993205;28;20026;-69
2023/10/31 06:16:05;;;;;;;34.17;4.28;;;22.40;99.90;;;;;;4993009;28;20042;-69
2023/10/31 06:18:31;;;;;;;37.38;4.82;;;22.50;99.90;;;;;;4993257;28;20109;-70
2023/10/31 06:21:00;;;;;;;38.17;4.47;;;22.50;99.90;;;;;;4992098;28;20065;-70
2023/10/31 06:23:26;;;;;;;29.10;3.97;;;22.60;99.90;;;;;;4994122;28;20476;-69
2023/10/31 06:25:52;;;;;;;31.35;4.50;;;22.60;99.90;;;;;;4997002;28;20442;-70
2023/10/31 06:28:18;;;;;;;36.65;5.05;;;22.50;99.90;;;;;;4996972;28;20097;-69
2023/10/31 06:30:44;;;;;;;31.60;4.68;;;22.40;99.90;;;;;;4996889;28;20026;-70
2023/10/31 06:33:11;;;;;;;33.35;4.75;;;22.40;99.90;;;;;;4996716;28;20027;-68
2023/10/31 06:35:37;;;;;;;26.13;4.32;;;22.70;99.90;;;;;;4997050;28;20451;-69
2023/10/31 06:38:03;;;;;;;26.80;4.43;;;23.10;99.90;;;;;;5002016;28;20097;-66
2023/10/31 06:40:29;;;;;;;34.85;4.35;;;23.30;99.90;;;;;;4996829;28;20057;-67
2023/10/31 06:42:55;;;;;;;30.80;4.60;;;23.20;99.90;;;;;;5004103;28;20037;-70
2023/10/31 06:45:22;;;;;;;19.95;4.65;;;23.00;99.90;;;;;;5013919;28;20041;-68
2023/10/31 06:47:48;;;;;;;22.70;3.70;;;23.00;99.90;;;;;;5015702;28;20375;-71
2023/10/31 06:50:14;;;;;;;27.45;4.88;;;23.00;99.90;;;;;;4997722;28;20025;-69
2023/10/31 06:52:40;;;;;;;29.75;4.22;;;22.90;99.90;;;;;;5015457;28;20022;-70
2023/10/31 06:55:06;;;;;;;26.10;4.68;;;22.90;99.90;;;;;;5015236;28;20034;-70
2023/10/31 06:57:32;;;;;;;26.92;4.15;;;22.90;99.90;;;;;;5015015;28;20153;-73
2023/10/31 06:59:58;;;;;;;82.38;5.90;;;22.90;99.90;;;;;;5014705;28;20048;-72
2023/10/31 07:02:27;;;;;;;31.40;4.70;;;22.90;99.90;;;;;;5015056;28;20359;-73
2023/10/31 07:04:53;;;;;;;27.65;4.20;;;22.90;99.90;;;;;;5014666;28;20069;-75
2023/10/31 07:07:19;;;;;;;25.50;4.15;;;23.00;99.90;;;;;;5014956;28;20018;-76
2023/10/31 07:09:51;;;;;;;23.52;4.43;;;23.00;99.90;;;;;;5014866;28;20037;-75
2023/10/31 07:12:17;;;;;;;24.35;3.90;;;23.30;99.90;;;;;;4999248;28;20026;-74
2023/10/31 07:14:43;;;;;;;25.33;3.78;;;23.80;99.90;;;;;;4995404;28;20033;-72
2023/10/31 07:17:09;;;;;;;30.73;4.30;;;24.40;99.90;;;;;;4995841;28;20066;-70
2023/10/31 07:19:35;;;;;;;27.30;4.93;;;24.50;99.90;;;;;;4996253;28;20026;-75
2023/10/31 07:22:02;;;;;;;27.38;4.32;;;24.60;99.90;;;;;;4995612;28;20073;-76
2023/10/31 07:24:28;;;;;;;31.40;4.30;;;24.90;99.90;;;;;;4995751;28;20088;-76
2023/10/31 07:26:55;;;;;;;30.98;4.38;;;25.30;99.90;;;;;;4994523;28;20026;-76
2023/10/31 07:29:21;;;;;;;27.88;4.47;;;25.40;99.90;;;;;;4977690;28;20390;-73
2023/10/31 07:31:47;;;;;;;;;;;25.40;99.90;;;;;;4995955;28;20113;-71
2023/10/31 07:34:13;;;;;;;38.67;4.53;;;25.80;99.90;;;;;;4995181;28;19906;-69
2023/10/31 07:36:41;;;;;;;29.30;3.88;;;26.00;99.90;;;;;;4995141;28;20035;-71
2023/10/31 07:39:07;;;;;;;39.30;4.13;;;26.10;99.90;;;;;;4995102;28;20031;-72
2023/10/31 07:41:33;;;;;;;24.75;3.45;;;26.70;99.90;;;;;;4995010;28;20026;-71
2023/10/31 07:43:59;;;;;;;29.65;3.90;;;26.70;99.90;;;;;;4993870;28;20030;-71
2023/10/31 07:46:25;;;;;;;27.30;4.55;;;26.60;99.90;;;;;;4977377;28;20038;-70
2023/10/31 07:48:51;;;;;;;32.40;4.47;;;26.70;99.90;;;;;;4995438;28;20019;-71
2023/10/31 07:51:17;;;;;;;36.20;5.00;;;26.70;99.90;;;;;;4995381;28;20089;-70
2023/10/31 07:53:43;;;;;;;25.85;4.07;;;27.00;99.90;;;;;;4995041;28;20026;-71
2023/10/31 07:56:16;;;;;;;;;;;27.10;99.90;;;;;;4995302;28;20034;-69
2023/10/31 07:58:42;;;;;;;30.80;4.80;;;27.10;99.90;;;;;;4994330;28;20286;-70
2023/10/31 08:01:10;;;;;;;35.00;5.00;;;27.30;99.90;;;;;;4994629;28;20022;-70
2023/10/31 08:03:40;;;;;;;28.48;4.10;;;27.40;99.90;;;;;;4994117;28;20475;-70
2023/10/31 08:06:09;;;;;;;26.30;3.80;;;27.40;99.90;;;;;;4994494;28;20439;-71
2023/10/31 08:08:35;;;;;;;29.88;4.22;;;27.30;99.90;;;;;;4994480;28;20038;-69
2023/10/31 08:11:01;;;;;;;26.80;4.15;;;27.10;99.90;;;;;;4977654;28;20407;-70
2023/10/31 08:13:27;;;;;;;22.65;4.50;;;27.00;99.90;;;;;;4994470;28;20030;-71
2023/10/31 08:15:53;;;;;;;23.27;3.70;;;26.90;99.90;;;;;;4994505;28;20027;-70
2023/10/31 08:18:20;;;;;;;22.67;4.30;;;26.70;99.90;;;;;;4994585;28;20471;-71
2023/10/31 08:20:48;;;;;;;20.35;3.65;;;26.80;99.90;;;;;;4994675;28;20493;-70
2023/10/31 08:23:15;;;;;;;28.38;4.43;;;26.90;99.90;;;;;;4993383;28;20026;-70
2023/10/31 08:25:41;;;;;;;;;;;26.70;99.90;;;;;;4994988;28;20030;-72
2023/10/31 08:28:07;;;;;;;32.38;4.30;;;26.40;99.90;;;;;;4994180;28;19916;-70
2023/10/31 08:30:33;;;;;;;25.38;4.53;;;26.40;99.90;;;;;;4994048;28;20402;-70
2023/10/31 08:32:59;;;;;;;;;;;26.40;99.90;;;;;;4994882;28;20479;-70
2023/10/31 08:35:25;;;;;;;26.15;3.70;;;26.70;99.90;;;;;;4989377;28;19914;-72
2023/10/31 08:37:51;;;;;;;28.80;4.45;;;26.90;99.90;;;;;;4971917;28;20114;-75
2023/10/31 08:40:18;;;;;;;30.42;5.05;;;27.20;99.90;;;;;;4957208;28;20022;-74
2023/10/31 08:42:45;;;;;;;32.28;4.57;;;27.70;99.90;;;;;;4974779;28;20035;-77
2023/10/31 08:45:11;;;;;;;33.58;4.88;;;28.00;99.90;;;;;;4973755;28;20440;-76
2023/10/31 08:47:39;;;;;;;35.33;4.72;;;28.20;99.90;;;;;;4974477;28;20519;-76
2023/10/31 08:50:08;;;;;;;30.55;4.93;;;28.50;99.90;;;;;;4973962;28;20077;-77
2023/10/31 08:52:34;;;;;;;28.05;4.18;;;28.40;99.90;;;;;;4972523;28;20031;-77
2023/10/31 08:55:00;;;;;;;;;;;28.10;99.90;;;;;;4974547;28;20131;-77
2023/10/31 08:57:26;;;;;;;33.88;5.07;;;27.80;99.90;;;;;;4956278;28;19953;-77
2023/10/31 08:59:52;;;;;;;36.13;5.20;;;27.40;99.90;;;;;;4973425;28;20093;-78
2023/10/31 09:02:19;;;;;;;30.75;4.78;;;27.40;99.90;;;;;;4975761;28;20050;-79
2023/10/31 09:04:45;;;;;;;30.45;4.97;;;27.00;99.90;;;;;;4975724;28;20535;-77
2023/10/31 09:07:11;;;;;;;;;;;27.10;99.90;;;;;;4973919;28;20309;-78
2023/10/31 09:09:38;;;;;;;28.30;4.65;;;27.30;99.90;;;;;;4973684;28;19910;-79
2023/10/31 09:12:05;;;;;;;34.40;5.38;;;27.60;99.90;;;;;;4987480;28;20045;-78
2023/10/31 09:14:31;;;;;;;;;;;27.50;99.90;;;;;;4992917;28;20037;-77
2023/10/31 09:16:56;;;;;;;;;;;27.20;99.90;;;;;;4993485;28;20006;-76
2023/10/31 09:19:22;;;;;;;35.47;5.15;;;27.20;99.90;;;;;;4993597;28;20342;-77
2023/10/31 09:21:48;;;;;;;40.78;6.97;;;27.10;99.90;;;;;;4993914;28;20049;-78
2023/10/31 09:24:14;;;;;;;37.35;5.10;;;26.90;99.90;;;;;;4975665;28;20026;-76
2023/10/31 09:26:43;;;;;;;37.83;5.55;;;27.10;99.90;;;;;;4993881;28;20117;-75
2023/10/31 09:29:13;;;;;;;29.75;4.78;;;27.10;99.90;;;;;;4993022;28;20014;-77
2023/10/31 09:31:39;;;;;;;30.15;5.10;;;27.20;99.90;;;;;;4975475;28;20091;-76
2023/10/31 09:34:05;;;;;;;33.28;5.18;;;27.50;99.90;;;;;;4993253;28;20028;-77
2023/10/31 09:36:35;;;;;;;32.80;4.65;;;27.80;99.90;;;;;;4993075;28;20042;-78
2023/10/31 09:39:01;;;;;;;34.08;5.95;;;28.00;99.90;;;;;;4992879;28;20018;-76
2023/10/31 09:41:27;;;;;;;33.25;5.60;;;28.00;99.90;;;;;;4992944;28;20204;-75
2023/10/31 09:43:54;;;;;;;33.47;5.35;;;27.80;99.90;;;;;;4974928;28;20549;-76
2023/10/31 09:46:22;;;;;;;31.75;5.80;;;27.70;99.90;;;;;;4993010;28;20058;-76
2023/10/31 09:48:50;;;;;;;25.17;5.10;;;27.50;99.90;;;;;;4992472;28;20479;-78
2023/10/31 09:51:16;;;;;;;60.15;7.35;;;27.10;99.90;;;;;;4992961;28;20064;-77
2023/10/31 09:53:45;;;;;;;30.85;6.63;;;27.20;99.90;;;;;;4992995;28;20117;-76
2023/10/31 09:56:11;;;;;;;36.50;7.40;;;27.20;99.90;;;;;;4992576;28;20038;-77
2023/10/31 09:58:39;;;;;;;34.88;8.10;;;27.00;99.90;;;;;;4992443;28;20098;-78
2023/10/31 10:01:05;;;;;;;31.73;8.27;;;27.30;99.90;;;;;;4992653;28;20036;-77
2023/10/31 10:03:31;;;;;;;35.22;8.10;;;27.40;99.90;;;;;;4992287;28;20018;-76
2023/10/31 10:05:58;;;;;;;47.95;6.95;;;27.40;99.90;;;;;;4992949;28;20121;-77
2023/10/31 10:08:24;;;;;;;35.22;5.65;;;27.50;99.90;;;;;;4992769;28;20022;-77
2023/10/31 10:10:51;;;;;;;34.60;5.25;;;27.60;99.90;;;;;;4992969;28;20031;-77
2023/10/31 10:13:18;;;;;;;30.27;5.88;;;27.50;99.90;;;;;;4992638;28;20479;-78
2023/10/31 10:15:49;;;;;;;29.23;5.32;;;27.80;99.90;;;;;;4991175;28;20184;-77
2023/10/31 10:18:26;;;;;;;25.02;4.47;;;27.90;99.90;;;;;;4974713;28;20096;-76
2023/10/31 10:21:01;;;;;;;31.35;5.18;;;27.80;99.90;;;;;;4992516;28;20403;-76
2023/10/31 10:23:28;;;;;;;34.80;5.35;;;27.60;99.90;;;;;;4992799;28;20018;-78
2023/10/31 10:25:55;;;;;;;30.55;4.72;;;27.50;99.90;;;;;;4992949;28;20026;-77
2023/10/31 10:28:21;;;;;;;26.23;4.57;;;27.70;99.90;;;;;;4991281;28;20056;-78
2023/10/31 11:00:44;;;;;;;17.77;3.53;;;28.40;99.90;;;;;;6141769;22;2027576;-76
2023/10/31 11:03:11;;;;;;;14.13;2.92;;;27.90;99.90;;;;;;6222681;23;20024;-76
2023/10/31 11:05:38;;;;;;;12.95;3.17;;;27.90;99.90;;;;;;6222784;23;20369;-77
2023/10/31 11:08:05;;;;;;;16.60;2.72;;;28.10;99.90;;;;;;6222408;23;20004;-78
2023/10/31 11:10:32;;;;;;;19.55;3.22;;;28.20;99.90;;;;;;6222991;23;20012;-77
2023/10/31 11:12:58;;;;;;;18.23;9.27;;;28.20;99.90;;;;;;6222845;23;20001;-75
2023/10/31 11:15:25;;;;;;;;;;;28.10;99.90;;;;;;6196421;23;20020;-73
2023/10/31 11:17:52;;;;;;;14.98;2.42;;;28.10;99.90;;;;;;6195606;23;19950;-73
2023/10/31 11:20:19;;;;;;;10.77;2.40;;;28.10;99.90;;;;;;6221606;23;20028;-77
2023/10/31 11:22:51;;;;;;;12.07;2.40;;;28.00;99.90;;;;;;6222977;23;20115;-77
2023/10/31 11:25:22;;;;;;;38.08;3.25;;;28.00;99.90;;;;;;6222879;23;20004;-78
2023/10/31 11:27:50;;;;;;;16.63;2.55;;;28.10;99.90;;;;;;6222139;23;20091;-77
2023/10/31 11:30:27;;;;;;;16.25;3.00;;;28.00;99.90;;;;;;6222506;23;20157;-78
2023/10/31 11:32:54;;;;;;;13.35;2.38;;;27.90;99.90;;;;;;6223434;23;19996;-78
2023/10/31 11:35:25;;;;;;;14.13;3.00;;;28.00;99.90;;;;;;6222400;23;20011;-77
2023/10/31 11:38:08;;;;;;;14.70;2.92;;;28.20;99.90;;;;;;6222738;23;19996;-78
2023/10/31 11:40:55;;;;;;;12.57;2.70;;;28.40;99.90;;;;;;6223479;23;20075;-78
2023/10/31 11:43:21;;;;;;;8.57;1.92;;;28.60;99.90;;;;;;6222867;23;20008;-76
2023/10/31 11:45:48;;;;;;;12.63;2.60;;;28.30;99.90;;;;;;6196312;23;20005;-78
2023/10/31 11:48:15;;;;;;;16.23;2.60;;;28.10;99.90;;;;;;6222846;23;20443;-76
2023/10/31 11:50:41;;;;;;;10.07;2.50;;;28.10;99.90;;;;;;6221821;23;20007;-75
2023/10/31 11:53:12;;;;;;;8.98;2.13;;;28.00;99.90;;;;;;6222200;23;20083;-76
2023/10/31 11:55:46;;;;;;;11.88;2.22;;;28.00;99.90;;;;;;6222546;23;20055;-75
2023/10/31 11:58:20;;;;;;;16.90;2.17;;;28.30;99.90;;;;;;6222335;23;20001;-77
2023/10/31 12:00:48;;;;;;;14.65;2.92;;;28.50;99.90;;;;;;6217904;23;20016;-76
2023/10/31 12:03:22;;;;;;;13.57;2.70;;;28.50;99.90;;;;;;6189254;23;20004;-78
2023/10/31 12:05:53;;;;;;;11.65;2.63;;;28.40;99.90;;;;;;6188227;23;20008;-81
2023/10/31 12:08:47;;;;;;;10.80;1.92;;;28.40;99.90;;;;;;6188635;23;20017;-79
2023/10/31 12:11:22;;;;;;;18.38;2.70;;;28.40;99.90;;;;;;6209942;23;20019;-74
2023/10/31 12:14:00;;;;;;;12.30;2.47;;;28.50;99.90;;;;;;6214654;23;19997;-75
2023/10/31 12:16:28;;;;;;;9.82;2.38;;;28.30;99.90;;;;;;6214079;23;20385;-74
2023/10/31 12:18:56;;;;;;;10.65;2.30;;;28.50;99.90;;;;;;6214486;23;19997;-73
2023/10/31 12:21:56;;;;;;;9.95;2.15;;;28.50;99.90;;;;;;6214572;23;20011;-74
2023/10/31 12:24:22;;;;;;;20.27;2.70;;;28.60;99.90;;;;;;6064983;23;20018;-75
2023/10/31 12:26:51;;;;;;;14.35;2.42;;;28.70;99.90;;;;;;6065116;23;20007;-75
2023/10/31 12:29:21;;;;;;;8.80;2.47;;;28.80;99.90;;;;;;6065267;23;20027;-75
2023/10/31 12:31:54;;;;;;;12.73;2.72;;;28.40;99.90;;;;;;6064748;23;20424;-75
2023/10/31 12:34:23;;;;;;;8.80;1.90;;;28.20;99.90;;;;;;6064810;23;20010;-76
2023/10/31 12:36:52;;;;;;;11.40;3.00;;;28.30;99.90;;;;;;6040670;23;20453;-74
2023/10/31 12:39:22;;;;;;;11.48;2.35;;;28.40;99.90;;;;;;6065282;23;20100;-74
2023/10/31 12:41:49;;;;;;;23.00;3.10;;;28.40;99.90;;;;;;6064981;23;20010;-75
2023/10/31 12:44:24;;;;;;;13.88;3.08;;;28.40;99.90;;;;;;6064999;23;20058;-75
2023/10/31 12:46:51;;;;;;;6.50;1.83;;;28.40;99.90;;;;;;6040847;23;20010;-74
2023/10/31 12:49:19;;;;;;;19.70;3.95;;;28.30;99.90;;;;;;6064552;23;20043;-72
2023/10/31 12:52:03;;;;;;;12.95;5.38;;;28.20;99.90;;;;;;6040526;23;20111;-74
2023/10/31 12:54:37;;;;;;;9.95;3.70;;;28.10;99.90;;;;;;6064797;23;20097;-75
2023/10/31 12:57:09;;;;;;;13.95;3.50;;;28.10;99.90;;;;;;6064870;23;20011;-74
2023/10/31 12:59:40;;;;;;;15.95;4.00;;;28.00;99.90;;;;;;6119300;23;20405;-74
2023/10/31 13:02:07;;;;;;;11.68;3.50;;;28.10;99.90;;;;;;6214526;23;20084;-73
2023/10/31 13:04:33;;;;;;;14.48;3.70;;;27.90;99.90;;;;;;6213755;23;20024;-74
2023/10/31 13:07:03;;;;;;;13.15;2.50;;;28.00;99.90;;;;;;6214232;23;20011;-74
2023/10/31 13:09:35;;;;;;;10.27;2.30;;;28.10;99.90;;;;;;6186455;23;20036;-78